createdAt,value
2023-02-04T00:02:31.556Z,5.28
2023-02-04T00:05:18.496Z,5.88
2023-02-04T00:08:06.796Z,6.13
2023-02-04T00:10:51.971Z,5.45
2023-02-04T00:13:36.918Z,5.60
2023-02-04T00:16:22.169Z,4.93
2023-02-04T00:19:07.269Z,5.53
2023-02-04T00:21:52.122Z,5.57
2023-02-04T00:24:38.073Z,5.20
2023-02-04T00:27:23.389Z,5.95
2023-02-04T00:30:09.319Z,4.93
2023-02-04T00:32:56.497Z,5.07
2023-02-04T00:35:41.385Z,5.20
2023-02-04T00:38:26.433Z,5.43
2023-02-04T00:41:11.813Z,5.28
2023-02-04T00:43:56.945Z,5.18
2023-02-04T00:46:42.710Z,4.88
2023-02-04T00:49:27.671Z,4.82
2023-02-04T00:52:12.488Z,5.18
2023-02-04T00:54:57.343Z,4.82
2023-02-04T00:57:42.932Z,5.25
2023-02-04T01:00:28.006Z,5.75
2023-02-04T01:03:13.111Z,4.95
2023-02-04T01:05:57.981Z,5.25
2023-02-04T01:08:43.143Z,4.38
2023-02-04T01:11:29.883Z,4.47
2023-02-04T01:14:14.882Z,4.40
2023-02-04T01:17:00.160Z,4.15
2023-02-04T01:19:45.539Z,4.78
2023-02-04T01:22:30.554Z,5.43
2023-02-04T01:25:15.775Z,4.93
2023-02-04T01:28:01.103Z,4.15
2023-02-04T01:30:46.399Z,4.13
2023-02-04T01:33:31.460Z,5.13
2023-02-04T01:36:21.642Z,4.93
2023-02-04T01:39:06.446Z,4.72
2023-02-04T01:41:51.851Z,5.00
2023-02-04T01:44:37.333Z,4.75
2023-02-04T01:47:23.663Z,4.70
2023-02-04T01:50:13.321Z,4.72
2023-02-04T01:52:58.971Z,4.57
2023-02-04T01:55:44.057Z,4.50
2023-02-04T01:58:32.202Z,4.85
2023-02-04T02:01:33.882Z,4.93
2023-02-04T02:04:28.865Z,5.50
2023-02-04T02:07:13.757Z,5.40
2023-02-04T02:09:58.856Z,5.78
2023-02-04T02:12:45.735Z,5.10
2023-02-04T02:15:31.270Z,5.00
2023-02-04T02:18:16.372Z,4.82
2023-02-04T02:21:09.326Z,5.38
2023-02-04T02:24:00.916Z,5.53
2023-02-04T02:26:46.139Z,5.60
2023-02-04T02:29:31.699Z,5.32
2023-02-04T02:32:17.504Z,4.85
2023-02-04T02:35:03.169Z,4.80
2023-02-04T02:37:48.166Z,4.65
2023-02-04T02:40:33.660Z,4.70
2023-02-04T02:43:24.074Z,4.53
2023-02-04T02:46:09.225Z,4.78
2023-02-04T02:48:54.696Z,4.60
2023-02-04T02:51:39.691Z,4.75
2023-02-04T02:54:29.766Z,4.35
2023-02-04T02:57:21.758Z,5.15
2023-02-04T03:00:18.636Z,5.35
2023-02-04T03:03:18.190Z,4.97
2023-02-04T03:06:14.217Z,4.95
2023-02-04T03:08:59.143Z,5.05
2023-02-04T03:11:44.641Z,6.10
2023-02-04T03:14:29.978Z,5.75
2023-02-04T03:17:15.532Z,5.13
2023-02-04T03:20:00.686Z,6.03
2023-02-04T03:22:45.926Z,5.57
2023-02-04T03:25:31.415Z,5.30
2023-02-04T03:28:16.774Z,5.43
2023-02-04T03:31:02.369Z,5.03
2023-02-04T03:33:47.693Z,5.35
2023-02-04T03:36:33.170Z,5.13
2023-02-04T03:39:18.257Z,5.30
2023-02-04T03:42:03.149Z,5.68
2023-02-04T03:44:48.120Z,5.50
2023-02-04T03:47:33.236Z,5.68
2023-02-04T03:50:18.549Z,5.47
2023-02-04T03:53:03.678Z,5.05
2023-02-04T03:55:48.611Z,5.13
2023-02-04T03:58:33.952Z,4.75
2023-02-04T04:01:19.171Z,5.22
2023-02-04T04:04:04.467Z,5.28
2023-02-04T04:06:49.881Z,5.18
2023-02-04T04:09:34.942Z,4.80
2023-02-04T04:12:20.215Z,4.97
2023-02-04T04:15:05.807Z,4.90
2023-02-04T04:17:51.166Z,5.32
2023-02-04T04:20:36.028Z,4.95
2023-02-04T04:23:21.269Z,4.78
2023-02-04T04:26:06.516Z,4.63
2023-02-04T04:28:51.457Z,4.75
2023-02-04T04:31:36.459Z,4.00
2023-02-04T04:34:21.965Z,4.43
2023-02-04T04:37:06.952Z,4.45
2023-02-04T04:39:51.949Z,5.65
2023-02-04T04:42:36.866Z,4.40
2023-02-04T04:45:22.004Z,4.68
2023-02-04T04:48:07.195Z,5.43
2023-02-04T04:50:52.530Z,5.35
2023-02-04T04:53:37.684Z,4.85
2023-02-04T04:56:22.978Z,5.50
2023-02-04T04:59:08.287Z,5.15
2023-02-04T05:01:53.381Z,5.13
2023-02-04T05:04:38.578Z,4.78
2023-02-04T05:07:23.409Z,5.25
2023-02-04T05:10:09.206Z,5.55
2023-02-04T05:12:54.084Z,5.60
2023-02-04T05:15:39.250Z,6.40
2023-02-04T05:18:24.696Z,5.40
2023-02-04T05:21:09.873Z,6.10
2023-02-04T05:23:55.372Z,6.10
2023-02-04T05:26:40.568Z,5.88
2023-02-04T05:29:25.748Z,6.05
2023-02-04T05:32:10.711Z,6.63
2023-02-04T05:34:55.735Z,6.50
2023-02-04T05:37:41.309Z,7.22
2023-02-04T05:40:26.718Z,7.25
2023-02-04T05:43:12.203Z,7.50
2023-02-04T05:45:57.963Z,6.28
2023-02-04T05:48:43.324Z,7.20
2023-02-04T05:51:28.660Z,7.13
2023-02-04T05:54:19.300Z,7.18
2023-02-04T05:57:04.401Z,6.97
2023-02-04T05:59:49.633Z,6.93
2023-02-04T06:02:34.846Z,7.20
2023-02-04T06:05:19.835Z,7.45
2023-02-04T06:08:05.046Z,7.30
2023-02-04T06:10:50.291Z,7.00
2023-02-04T06:13:35.288Z,7.22
2023-02-04T06:16:20.203Z,6.68
2023-02-04T06:19:05.199Z,7.15
2023-02-04T06:21:50.066Z,6.88
2023-02-04T06:24:35.129Z,7.55
2023-02-04T06:27:23.301Z,6.28
2023-02-04T06:30:10.565Z,7.13
2023-02-04T06:32:55.778Z,7.53
2023-02-04T06:35:40.889Z,6.90
2023-02-04T06:38:25.857Z,7.07
2023-02-04T06:41:11.057Z,6.68
2023-02-04T06:43:56.249Z,6.60
2023-02-04T06:46:41.391Z,7.35
2023-02-04T06:49:26.599Z,6.97
2023-02-04T06:52:20.536Z,7.49
2023-02-04T06:55:05.807Z,6.80
2023-02-04T06:57:50.763Z,7.57
2023-02-04T07:00:35.758Z,7.22
2023-02-04T07:03:20.820Z,7.07
2023-02-04T07:06:06.154Z,7.38
2023-02-04T07:08:51.548Z,7.18
2023-02-04T07:11:36.556Z,6.28
2023-02-04T07:14:21.674Z,6.65
2023-02-04T07:17:06.541Z,6.10
2023-02-04T07:19:52.667Z,6.03
2023-02-04T07:22:38.252Z,6.57
2023-02-04T07:25:23.450Z,6.40
2023-02-04T07:28:08.672Z,6.22
2023-02-04T07:30:53.624Z,6.10
2023-02-04T07:33:38.689Z,5.95
2023-02-04T07:36:24.000Z,6.32
2023-02-04T07:39:10.159Z,6.25
2023-02-04T07:41:55.197Z,6.18
2023-02-04T07:44:40.292Z,6.45
2023-02-04T07:47:25.381Z,6.65
2023-02-04T07:50:10.708Z,6.28
2023-02-04T07:52:55.725Z,6.65
2023-02-04T07:55:40.931Z,5.57
2023-02-04T07:58:25.946Z,5.63
2023-02-04T08:01:11.066Z,6.18
2023-02-04T08:03:56.120Z,6.03
2023-02-04T08:06:41.158Z,6.13
2023-02-04T08:09:27.142Z,5.50
2023-02-04T08:12:12.432Z,5.95
2023-02-04T08:14:57.626Z,5.47
2023-02-04T08:17:43.120Z,5.57
2023-02-04T08:20:28.172Z,5.18
2023-02-04T08:23:13.346Z,5.43
2023-02-04T08:25:59.785Z,5.38
2023-02-04T08:28:45.074Z,5.78
2023-02-04T08:31:30.809Z,5.38
2023-02-04T08:34:15.977Z,5.35
2023-02-04T08:37:00.712Z,5.70
2023-02-04T08:39:47.332Z,3.55
2023-02-04T08:42:32.523Z,4.93
2023-02-04T08:45:17.686Z,5.78
2023-02-04T08:48:02.646Z,4.45
2023-02-04T08:50:47.569Z,5.10
2023-02-04T08:53:32.619Z,4.95
2023-02-04T08:56:20.328Z,5.38
2023-02-04T08:59:05.613Z,5.50
2023-02-04T09:01:52.743Z,5.50
2023-02-04T09:04:37.682Z,5.47
2023-02-04T09:07:22.778Z,4.80
2023-02-04T09:10:08.266Z,5.22
2023-02-04T09:12:56.073Z,5.15
2023-02-04T09:15:41.301Z,4.60
2023-02-04T09:18:26.507Z,5.07
2023-02-04T09:21:11.766Z,4.63
2023-02-04T09:23:57.980Z,4.57
2023-02-04T09:26:43.365Z,4.82
2023-02-04T09:29:28.618Z,5.00
2023-02-04T09:32:13.935Z,4.80
2023-02-04T09:34:58.836Z,4.43
2023-02-04T09:37:43.646Z,4.60
2023-02-04T09:40:32.585Z,4.22
2023-02-04T09:43:22.953Z,4.50
2023-02-04T09:49:03.554Z,4.88
2023-02-04T09:51:50.030Z,5.20
2023-02-04T09:54:35.237Z,5.03
2023-02-04T09:57:21.109Z,5.28
2023-02-04T10:00:18.593Z,5.43
2023-02-04T10:03:03.865Z,4.53
2023-02-04T10:05:49.770Z,5.03
2023-02-04T10:08:34.983Z,4.57
2023-02-04T10:11:22.171Z,4.82
2023-02-04T10:14:13.371Z,5.03
2023-02-04T10:17:01.320Z,4.38
2023-02-04T10:19:46.793Z,5.30
2023-02-04T10:22:32.188Z,5.30
2023-02-04T10:25:20.893Z,5.68
2023-02-04T10:28:05.880Z,5.47
2023-02-04T10:30:51.279Z,5.10
2023-02-04T10:33:38.570Z,4.80
2023-02-04T10:36:23.494Z,4.32
2023-02-04T10:39:20.183Z,4.40
2023-02-04T10:42:05.294Z,4.35
2023-02-04T10:44:51.578Z,4.00
2023-02-04T10:47:37.024Z,4.20
2023-02-04T10:50:24.934Z,4.50
2023-02-04T10:53:31.663Z,4.80
2023-02-04T10:56:21.629Z,3.58
2023-02-04T10:59:19.257Z,3.65
2023-02-04T11:02:24.161Z,3.17
2023-02-04T11:05:18.678Z,2.60
2023-02-04T11:08:20.405Z,2.58
2023-02-04T11:11:24.983Z,2.70
2023-02-04T11:14:28.271Z,2.90
2023-02-04T11:17:20.882Z,2.25
2023-02-04T11:20:17.216Z,2.78
2023-02-04T11:23:14.784Z,2.10
2023-02-04T11:26:13.366Z,1.75
2023-02-04T11:28:58.701Z,1.75
2023-02-04T11:31:57.764Z,1.95
2023-02-04T11:34:49.311Z,2.45
2023-02-04T11:37:39.975Z,1.42
2023-02-04T11:40:29.998Z,1.52
2023-02-04T11:43:16.259Z,1.67
2023-02-04T11:46:10.540Z,1.10
2023-02-04T11:48:57.741Z,1.77
2023-02-04T11:51:44.766Z,1.80
2023-02-04T11:54:29.680Z,1.73
2023-02-04T11:57:15.676Z,1.30
2023-02-04T12:00:00.887Z,1.40
2023-02-04T12:02:49.160Z,1.30
2023-02-04T12:05:45.232Z,1.33
2023-02-04T12:08:36.391Z,1.25
2023-02-04T12:11:27.488Z,1.13
2023-02-04T12:14:17.964Z,1.15
2023-02-04T12:17:18.132Z,1.33
2023-02-04T12:20:03.686Z,1.17
2023-02-04T12:22:48.728Z,1.10
2023-02-04T12:25:33.965Z,1.02
2023-02-04T12:28:19.997Z,1.20
2023-02-04T12:31:05.578Z,1.10
2023-02-04T12:33:51.058Z,1.40
2023-02-04T12:36:36.187Z,1.23
2023-02-04T12:39:21.183Z,1.13
2023-02-04T12:42:06.327Z,1.05
2023-02-04T12:44:51.760Z,0.73
2023-02-04T12:47:37.614Z,0.85
2023-02-04T12:50:22.866Z,1.10
2023-02-04T12:53:08.097Z,1.35
2023-02-04T12:55:53.332Z,1.75
2023-02-04T12:58:38.686Z,1.70
2023-02-04T13:01:23.610Z,1.50
2023-02-04T13:04:08.562Z,1.25
2023-02-04T13:06:53.687Z,1.90
2023-02-04T13:09:38.627Z,1.50
2023-02-04T13:12:23.580Z,1.55
2023-02-04T13:15:09.339Z,1.40
2023-02-04T13:17:54.412Z,1.58
2023-02-04T13:20:39.571Z,2.20
2023-02-04T13:23:24.761Z,2.25
2023-02-04T13:26:10.494Z,1.70
2023-02-04T13:28:55.370Z,2.10
2023-02-04T13:31:40.773Z,2.13
2023-02-04T13:34:25.891Z,2.17
2023-02-04T13:37:11.170Z,2.10
2023-02-04T13:39:56.226Z,2.85
2023-02-04T13:42:41.554Z,2.22
2023-02-04T13:45:27.036Z,2.33
2023-02-04T13:48:12.371Z,2.17
2023-02-04T13:50:57.362Z,2.25
2023-02-04T13:53:42.326Z,3.25
2023-02-04T13:56:28.194Z,5.60
2023-02-04T13:59:13.200Z,2.42
2023-02-04T14:01:58.290Z,2.47
2023-02-04T14:04:43.913Z,2.13
2023-02-04T14:07:30.407Z,2.38
2023-02-04T14:10:18.181Z,1.90
2023-02-04T14:13:03.061Z,2.15
2023-02-04T14:15:47.923Z,2.15
2023-02-04T14:18:32.890Z,1.85
2023-02-04T14:21:17.850Z,1.63
2023-02-04T14:24:03.373Z,1.20
2023-02-04T14:26:48.621Z,1.00
2023-02-04T14:29:34.583Z,1.35
2023-02-04T14:32:20.923Z,1.30
2023-02-04T14:35:06.228Z,1.00
2023-02-04T14:37:51.907Z,1.10
2023-02-04T14:40:37.028Z,1.50
2023-02-04T14:43:22.218Z,1.73
2023-02-04T14:46:07.385Z,1.98
2023-02-04T14:48:52.528Z,1.90
2023-02-04T14:51:37.511Z,2.20
2023-02-04T14:54:22.293Z,1.83
2023-02-04T14:57:11.222Z,2.13
2023-02-04T14:59:56.434Z,2.73
2023-02-04T15:02:42.614Z,2.53
2023-02-04T15:05:27.710Z,2.83
2023-02-04T15:08:12.556Z,2.85
2023-02-04T15:10:57.410Z,2.50
2023-02-04T15:13:42.408Z,3.13
2023-02-04T15:16:27.362Z,3.45
2023-02-04T15:19:12.765Z,4.03
2023-02-04T15:21:57.877Z,5.25
2023-02-04T15:24:43.150Z,3.47
2023-02-04T15:27:28.257Z,9.07
2023-02-04T15:30:14.000Z,10.20
2023-02-04T15:32:59.303Z,5.80
2023-02-04T15:35:44.215Z,3.72
2023-02-04T15:38:29.279Z,4.65
2023-02-04T15:41:14.370Z,4.40
2023-02-04T15:43:59.455Z,4.22
2023-02-04T15:46:44.392Z,4.22
2023-02-04T15:49:29.498Z,3.40
2023-02-04T15:52:24.206Z,5.57
2023-02-04T15:55:10.567Z,3.78
2023-02-04T15:57:56.008Z,4.32
2023-02-04T16:00:41.750Z,3.85
2023-02-04T16:03:27.214Z,3.67
2023-02-04T16:06:12.701Z,3.45
2023-02-04T16:08:57.749Z,3.22
2023-02-04T16:11:42.611Z,3.58
2023-02-04T16:14:27.452Z,3.25
2023-02-04T16:17:12.347Z,3.60
2023-02-04T16:19:58.050Z,3.42
2023-02-04T16:22:43.424Z,3.38
2023-02-04T16:25:28.473Z,3.15
2023-02-04T16:28:13.617Z,3.40
2023-02-04T16:30:58.706Z,3.30
2023-02-04T16:33:43.769Z,3.72
2023-02-04T16:36:28.689Z,3.42
2023-02-04T16:39:13.618Z,3.47
2023-02-04T16:41:59.130Z,3.50
2023-02-04T16:44:44.247Z,3.53
2023-02-04T16:47:29.269Z,3.70
2023-02-04T16:50:14.174Z,3.47
2023-02-04T16:52:59.507Z,3.47
2023-02-04T16:55:45.696Z,3.08
2023-02-04T16:58:30.754Z,3.85
2023-02-04T17:01:17.287Z,3.83
2023-02-04T17:04:02.658Z,3.97
2023-02-04T17:06:47.992Z,4.00
2023-02-04T17:09:33.139Z,4.30
2023-02-04T17:12:18.164Z,4.07
2023-02-04T17:15:03.567Z,4.05
2023-02-04T17:17:48.513Z,4.38
2023-02-04T17:20:33.650Z,4.30
2023-02-04T17:23:18.827Z,4.40
2023-02-04T17:26:03.940Z,4.20
2023-02-04T17:28:50.716Z,5.35
2023-02-04T17:31:36.294Z,4.63
2023-02-04T17:34:21.406Z,5.00
2023-02-04T17:37:06.638Z,4.40
2023-02-04T17:39:51.853Z,4.57
2023-02-04T17:42:36.762Z,4.68
2023-02-04T17:45:22.005Z,5.25
2023-02-04T17:48:07.111Z,4.82
2023-02-04T17:50:53.294Z,5.63
2023-02-04T17:53:40.400Z,5.50
2023-02-04T17:56:25.972Z,6.10
2023-02-04T17:59:11.268Z,6.53
2023-02-04T18:01:56.648Z,6.38
2023-02-04T18:04:42.011Z,6.97
2023-02-04T18:07:27.429Z,6.80
2023-02-04T18:10:37.244Z,6.38
2023-02-04T18:13:29.134Z,6.55
2023-02-04T18:16:30.419Z,5.70
2023-02-04T18:19:20.057Z,6.38
2023-02-04T18:24:53.970Z,6.13
2023-02-04T18:27:38.810Z,5.32
2023-02-04T18:30:27.716Z,6.57
2023-02-04T18:33:24.884Z,5.63
2023-02-04T18:36:11.895Z,5.25
2023-02-04T18:38:57.131Z,5.60
2023-02-04T18:41:44.991Z,5.18
2023-02-04T18:44:37.915Z,4.50
2023-02-04T18:47:31.029Z,5.65
2023-02-04T18:50:22.081Z,4.82
2023-02-04T18:53:13.708Z,4.65
2023-02-04T18:56:02.111Z,4.63
2023-02-04T18:58:49.170Z,5.25
2023-02-04T19:01:38.906Z,5.28
2023-02-04T19:04:26.071Z,4.53
2023-02-04T19:07:14.468Z,4.80
2023-02-04T19:09:59.964Z,3.75
2023-02-04T19:12:44.952Z,4.43
2023-02-04T19:15:37.712Z,3.40
2023-02-04T19:18:29.577Z,3.40
2023-02-04T19:21:22.510Z,3.53
2023-02-04T19:24:17.713Z,3.70
2023-02-04T19:27:36.794Z,3.65
2023-02-04T19:30:28.094Z,3.35
2023-02-04T19:33:38.046Z,3.33
2023-02-04T19:36:36.967Z,3.25
2023-02-04T19:39:28.373Z,3.30
2023-02-04T19:42:34.710Z,3.05
2023-02-04T19:45:22.996Z,3.08
2023-02-04T19:48:37.599Z,3.17
2023-02-04T19:51:28.709Z,3.05
2023-02-04T19:54:20.004Z,2.90
2023-02-04T19:57:21.851Z,2.80
2023-02-04T20:00:25.797Z,3.33
2023-02-04T20:03:19.903Z,2.60
2023-02-04T20:06:25.793Z,3.05
2023-02-04T20:09:15.604Z,2.83
2023-02-04T20:12:06.485Z,2.50
2023-02-04T20:14:56.553Z,2.20
2023-02-04T20:17:47.517Z,2.40
2023-02-04T20:20:33.362Z,1.90
2023-02-04T20:23:24.332Z,2.03
2023-02-04T20:26:10.176Z,2.30
2023-02-04T20:28:56.119Z,3.10
2023-02-04T20:31:41.119Z,2.63
2023-02-04T20:34:27.241Z,2.47
2023-02-04T20:37:25.714Z,2.50
2023-02-04T20:40:33.404Z,2.60
2023-02-04T20:43:21.256Z,2.40
2023-02-04T20:46:07.790Z,2.63
2023-02-04T20:48:53.059Z,2.70
2023-02-04T20:51:38.154Z,2.75
2023-02-04T20:54:23.199Z,3.05
2023-02-04T20:57:17.644Z,2.47
2023-02-04T21:00:31.967Z,2.95
2023-02-04T21:03:33.477Z,2.88
2023-02-04T21:06:35.142Z,2.80
2023-02-04T21:09:29.096Z,2.83
2023-02-04T21:12:14.685Z,2.88
2023-02-04T21:15:00.010Z,2.58
2023-02-04T21:17:45.313Z,2.70
2023-02-04T21:20:33.464Z,2.70
2023-02-04T21:23:19.577Z,2.78
2023-02-04T21:26:05.620Z,3.10
2023-02-04T21:28:50.588Z,2.85
2023-02-04T21:31:35.953Z,3.03
2023-02-04T21:34:20.878Z,2.95
2023-02-04T21:37:06.092Z,3.20
2023-02-04T21:39:51.164Z,3.20
2023-02-04T21:42:36.133Z,3.20
2023-02-04T21:45:23.128Z,3.42
2023-02-04T21:48:08.098Z,3.10
2023-02-04T21:50:53.872Z,3.05
2023-02-04T21:53:39.125Z,2.92
2023-02-04T21:56:24.134Z,3.15
2023-02-04T21:59:09.472Z,3.38
2023-02-04T22:01:54.738Z,2.83
2023-02-04T22:04:39.863Z,2.75
2023-02-04T22:07:24.831Z,3.08
2023-02-04T22:10:16.349Z,3.50
2023-02-04T22:13:01.548Z,2.80
2023-02-04T22:15:47.933Z,2.97
2023-02-04T22:18:33.125Z,2.72
2023-02-04T22:21:18.139Z,3.00
2023-02-04T22:24:03.359Z,3.28
2023-02-04T22:26:51.596Z,2.97
2023-02-04T22:29:36.554Z,2.92
2023-02-04T22:32:23.060Z,3.20
2023-02-04T22:35:12.701Z,3.00
2023-02-04T22:37:59.998Z,3.28
2023-02-04T22:40:48.405Z,2.83
2023-02-04T22:43:33.347Z,3.10
2023-02-04T22:46:18.524Z,3.75
2023-02-04T22:49:03.538Z,2.92
2023-02-04T22:51:48.908Z,3.35
2023-02-04T22:54:34.310Z,3.63
2023-02-04T22:57:19.607Z,4.00
2023-02-04T23:00:08.969Z,3.92
2023-02-04T23:02:53.944Z,3.40
2023-02-04T23:05:39.430Z,3.47
2023-02-04T23:08:24.494Z,3.58
2023-02-04T23:11:09.723Z,3.30
2023-02-04T23:13:55.757Z,3.42
2023-02-04T23:16:40.769Z,3.33
2023-02-04T23:19:25.625Z,3.85
2023-02-04T23:22:11.941Z,4.55
2023-02-04T23:24:58.035Z,3.30
2023-02-04T23:27:42.894Z,3.65
2023-02-04T23:30:28.211Z,3.90
2023-02-04T23:33:13.300Z,3.85
2023-02-04T23:35:58.264Z,3.35
2023-02-04T23:38:43.598Z,3.40
2023-02-04T23:41:28.964Z,3.75
2023-02-04T23:44:14.315Z,3.60
2023-02-04T23:46:59.487Z,2.88
2023-02-04T23:49:44.465Z,3.35
2023-02-04T23:52:29.535Z,3.80
2023-02-04T23:55:15.176Z,3.35
2023-02-04T23:58:01.112Z,3.65
